sensor_id;sensor_type;location;lat;lon;timestamp;temperature;humidity
10419;DHT22;5256;48.728;9.140;2022-09-02T00:01:43;12.00;99.90
10419;DHT22;5256;48.728;9.140;2022-09-02T00:04:12;12.00;99.90
10419;DHT22;5256;48.728;9.140;2022-09-02T00:06:38;12.00;99.90
10419;DHT22;5256;48.728;9.140;2022-09-02T00:09:06;11.90;99.90
10419;DHT22;5256;48.728;9.140;2022-09-02T00:11:34;11.90;99.90
10419;DHT22;5256;48.728;9.140;2022-09-02T00:14:03;11.90;99.90
10419;DHT22;5256;48.728;9.140;2022-09-02T00:16:29;11.80;99.90
10419;DHT22;5256;48.728;9.140;2022-09-02T00:18:56;11.90;99.90
10419;DHT22;5256;48.728;9.140;2022-09-02T00:21:22;11.80;99.90
10419;DHT22;5256;48.728;9.140;2022-09-02T00:23:49;11.80;99.90
10419;DHT22;5256;48.728;9.140;2022-09-02T00:26:14;11.80;99.90
10419;DHT22;5256;48.728;9.140;2022-09-02T00:28:40;11.80;99.90
10419;DHT22;5256;48.728;9.140;2022-09-02T00:31:06;11.80;99.90
10419;DHT22;5256;48.728;9.140;2022-09-02T00:33:32;11.80;99.90
10419;DHT22;5256;48.728;9.140;2022-09-02T00:36:02;11.90;99.90
10419;DHT22;5256;48.728;9.140;2022-09-02T00:38:29;11.90;99.90
10419;DHT22;5256;48.728;9.140;2022-09-02T00:40:58;12.00;99.90
10419;DHT22;5256;48.728;9.140;2022-09-02T00:43:46;12.00;99.90
10419;DHT22;5256;48.728;9.140;2022-09-02T00:46:19;12.10;99.90
10419;DHT22;5256;48.728;9.140;2022-09-02T00:48:51;12.20;99.90
10419;DHT22;5256;48.728;9.140;2022-09-02T00:51:19;12.30;99.90
10419;DHT22;5256;48.728;9.140;2022-09-02T00:53:46;12.40;99.90
10419;DHT22;5256;48.728;9.140;2022-09-02T00:56:18;12.40;99.90
10419;DHT22;5256;48.728;9.140;2022-09-02T00:58:45;12.50;99.90
10419;DHT22;5256;48.728;9.140;2022-09-02T01:01:11;12.50;99.90
10419;DHT22;5256;48.728;9.140;2022-09-02T01:03:38;12.40;99.90
10419;DHT22;5256;48.728;9.140;2022-09-02T01:06:05;12.40;99.90
10419;DHT22;5256;48.728;9.140;2022-09-02T01:08:45;12.30;99.90
10419;DHT22;5256;48.728;9.140;2022-09-02T01:11:11;12.30;99.90
10419;DHT22;5256;48.728;9.140;2022-09-02T01:13:40;12.30;99.90
10419;DHT22;5256;48.728;9.140;2022-09-02T01:16:30;12.20;99.90
10419;DHT22;5256;48.728;9.140;2022-09-02T01:18:58;12.20;99.90
10419;DHT22;5256;48.728;9.140;2022-09-02T01:21:26;12.10;99.90
10419;DHT22;5256;48.728;9.140;2022-09-02T01:23:52;12.00;99.90
10419;DHT22;5256;48.728;9.140;2022-09-02T01:26:18;12.00;99.90
10419;DHT22;5256;48.728;9.140;2022-09-02T01:28:44;11.80;99.90
10419;DHT22;5256;48.728;9.140;2022-09-02T01:31:10;11.70;99.90
10419;DHT22;5256;48.728;9.140;2022-09-02T01:33:36;11.70;99.90
10419;DHT22;5256;48.728;9.140;2022-09-02T01:36:02;11.50;99.90
10419;DHT22;5256;48.728;9.140;2022-09-02T01:38:30;11.50;99.90
10419;DHT22;5256;48.728;9.140;2022-09-02T01:40:55;11.50;99.90
10419;DHT22;5256;48.728;9.140;2022-09-02T01:43:25;11.40;99.90
10419;DHT22;5256;48.728;9.140;2022-09-02T01:45:53;11.30;99.90
10419;DHT22;5256;48.728;9.140;2022-09-02T01:48:19;11.30;99.90
10419;DHT22;5256;48.728;9.140;2022-09-02T01:50:50;11.20;99.90
10419;DHT22;5256;48.728;9.140;2022-09-02T01:53:16;11.20;99.90
10419;DHT22;5256;48.728;9.140;2022-09-02T01:55:41;11.10;99.90
10419;DHT22;5256;48.728;9.140;2022-09-02T01:58:08;11.00;99.90
10419;DHT22;5256;48.728;9.140;2022-09-02T02:00:34;11.00;99.90
10419;DHT22;5256;48.728;9.140;2022-09-02T02:03:00;11.10;99.90
10419;DHT22;5256;48.728;9.140;2022-09-02T02:05:26;11.10;99.90
10419;DHT22;5256;48.728;9.140;2022-09-02T02:07:52;11.10;99.90
10419;DHT22;5256;48.728;9.140;2022-09-02T02:10:19;11.00;99.90
10419;DHT22;5256;48.728;9.140;2022-09-02T02:12:45;11.00;99.90
10419;DHT22;5256;48.728;9.140;2022-09-02T02:15:15;10.90;99.90
10419;DHT22;5256;48.728;9.140;2022-09-02T02:17:41;10.90;99.90
10419;DHT22;5256;48.728;9.140;2022-09-02T02:20:09;10.90;99.90
10419;DHT22;5256;48.728;9.140;2022-09-02T02:22:35;11.00;99.90
10419;DHT22;5256;48.728;9.140;2022-09-02T02:25:01;11.00;99.90
10419;DHT22;5256;48.728;9.140;2022-09-02T02:27:26;11.10;99.90
10419;DHT22;5256;48.728;9.140;2022-09-02T02:29:52;11.00;99.90
10419;DHT22;5256;48.728;9.140;2022-09-02T02:32:17;11.00;99.90
10419;DHT22;5256;48.728;9.140;2022-09-02T02:34:44;10.90;99.90
10419;DHT22;5256;48.728;9.140;2022-09-02T02:37:10;10.90;99.90
10419;DHT22;5256;48.728;9.140;2022-09-02T02:39:38;10.80;99.90
10419;DHT22;5256;48.728;9.140;2022-09-02T02:42:05;10.70;99.90
10419;DHT22;5256;48.728;9.140;2022-09-02T02:44:31;10.60;99.90
10419;DHT22;5256;48.728;9.140;2022-09-02T02:46:57;10.50;99.90
10419;DHT22;5256;48.728;9.140;2022-09-02T02:49:22;10.50;99.90
10419;DHT22;5256;48.728;9.140;2022-09-02T02:51:48;10.50;99.90
10419;DHT22;5256;48.728;9.140;2022-09-02T02:54:14;10.50;99.90
10419;DHT22;5256;48.728;9.140;2022-09-02T02:56:39;10.40;99.90
10419;DHT22;5256;48.728;9.140;2022-09-02T02:59:05;10.40;99.90
10419;DHT22;5256;48.728;9.140;2022-09-02T03:01:31;10.30;99.90
10419;DHT22;5256;48.728;9.140;2022-09-02T03:03:57;10.20;99.90
10419;DHT22;5256;48.728;9.140;2022-09-02T03:06:24;10.20;99.90
10419;DHT22;5256;48.728;9.140;2022-09-02T03:08:49;10.10;99.90
10419;DHT22;5256;48.728;9.140;2022-09-02T03:11:16;10.10;99.90
10419;DHT22;5256;48.728;9.140;2022-09-02T03:13:42;10.10;99.90
10419;DHT22;5256;48.728;9.140;2022-09-02T03:16:08;10.10;99.90
10419;DHT22;5256;48.728;9.140;2022-09-02T03:18:33;10.10;99.90
10419;DHT22;5256;48.728;9.140;2022-09-02T03:21:00;10.10;99.90
10419;DHT22;5256;48.728;9.140;2022-09-02T03:23:26;10.10;99.90
10419;DHT22;5256;48.728;9.140;2022-09-02T03:25:52;10.00;99.90
10419;DHT22;5256;48.728;9.140;2022-09-02T03:28:18;10.10;99.90
10419;DHT22;5256;48.728;9.140;2022-09-02T03:30:45;10.00;99.90
10419;DHT22;5256;48.728;9.140;2022-09-02T03:33:10;10.00;99.90
10419;DHT22;5256;48.728;9.140;2022-09-02T03:35:41;10.00;99.90
10419;DHT22;5256;48.728;9.140;2022-09-02T03:38:07;10.00;99.90
10419;DHT22;5256;48.728;9.140;2022-09-02T03:40:33;10.00;99.90
10419;DHT22;5256;48.728;9.140;2022-09-02T03:42:59;10.00;99.90
10419;DHT22;5256;48.728;9.140;2022-09-02T03:45:25;10.00;99.90
10419;DHT22;5256;48.728;9.140;2022-09-02T03:47:50;9.90;99.90
10419;DHT22;5256;48.728;9.140;2022-09-02T03:50:20;9.90;99.90
10419;DHT22;5256;48.728;9.140;2022-09-02T03:52:47;9.80;99.90
10419;DHT22;5256;48.728;9.140;2022-09-02T03:55:14;9.80;99.90
10419;DHT22;5256;48.728;9.140;2022-09-02T03:57:40;9.70;99.90
10419;DHT22;5256;48.728;9.140;2022-09-02T04:00:06;9.70;99.90
10419;DHT22;5256;48.728;9.140;2022-09-02T04:02:33;9.70;99.90
10419;DHT22;5256;48.728;9.140;2022-09-02T04:04:59;9.70;99.90
10419;DHT22;5256;48.728;9.140;2022-09-02T04:07:25;9.70;99.90
10419;DHT22;5256;48.728;9.140;2022-09-02T04:09:50;9.70;99.90
10419;DHT22;5256;48.728;9.140;2022-09-02T04:12:17;9.70;99.90
10419;DHT22;5256;48.728;9.140;2022-09-02T04:14:42;9.70;99.90
10419;DHT22;5256;48.728;9.140;2022-09-02T04:23:44;9.70;99.90
10419;DHT22;5256;48.728;9.140;2022-09-02T04:26:12;9.70;99.90
10419;DHT22;5256;48.728;9.140;2022-09-02T04:28:39;9.70;99.90
10419;DHT22;5256;48.728;9.140;2022-09-02T04:31:06;9.80;99.90
10419;DHT22;5256;48.728;9.140;2022-09-02T04:33:33;9.80;99.90
10419;DHT22;5256;48.728;9.140;2022-09-02T04:35:58;9.80;99.90
10419;DHT22;5256;48.728;9.140;2022-09-02T04:38:24;9.80;99.90
10419;DHT22;5256;48.728;9.140;2022-09-02T04:40:50;9.80;99.90
10419;DHT22;5256;48.728;9.140;2022-09-02T04:43:15;9.80;99.90
10419;DHT22;5256;48.728;9.140;2022-09-02T04:45:44;9.80;99.90
10419;DHT22;5256;48.728;9.140;2022-09-02T04:48:10;9.80;99.90
10419;DHT22;5256;48.728;9.140;2022-09-02T04:50:37;9.80;99.90
10419;DHT22;5256;48.728;9.140;2022-09-02T04:53:04;9.90;99.90
10419;DHT22;5256;48.728;9.140;2022-09-02T04:55:30;9.90;99.90
10419;DHT22;5256;48.728;9.140;2022-09-02T04:57:56;9.90;99.90
10419;DHT22;5256;48.728;9.140;2022-09-02T05:00:21;9.90;99.90
10419;DHT22;5256;48.728;9.140;2022-09-02T05:02:47;9.90;99.90
10419;DHT22;5256;48.728;9.140;2022-09-02T05:05:13;9.90;99.90
10419;DHT22;5256;48.728;9.140;2022-09-02T05:07:38;9.90;99.90
10419;DHT22;5256;48.728;9.140;2022-09-02T05:10:05;10.00;99.90
10419;DHT22;5256;48.728;9.140;2022-09-02T05:12:31;10.10;99.90
10419;DHT22;5256;48.728;9.140;2022-09-02T05:14:57;10.10;99.90
10419;DHT22;5256;48.728;9.140;2022-09-02T05:17:26;10.10;99.90
10419;DHT22;5256;48.728;9.140;2022-09-02T05:19:51;10.10;99.90
10419;DHT22;5256;48.728;9.140;2022-09-02T05:22:17;10.20;99.90
10419;DHT22;5256;48.728;9.140;2022-09-02T05:24:44;10.30;99.90
10419;DHT22;5256;48.728;9.140;2022-09-02T05:27:11;10.40;99.90
10419;DHT22;5256;48.728;9.140;2022-09-02T05:29:37;10.40;99.90
10419;DHT22;5256;48.728;9.140;2022-09-02T05:32:03;10.40;99.90
10419;DHT22;5256;48.728;9.140;2022-09-02T05:34:29;10.60;99.90
10419;DHT22;5256;48.728;9.140;2022-09-02T05:36:55;10.70;99.90
10419;DHT22;5256;48.728;9.140;2022-09-02T05:39:20;10.90;99.90
10419;DHT22;5256;48.728;9.140;2022-09-02T05:41:46;11.00;99.90
10419;DHT22;5256;48.728;9.140;2022-09-02T05:44:11;11.10;99.90
10419;DHT22;5256;48.728;9.140;2022-09-02T05:46:37;11.40;99.90
10419;DHT22;5256;48.728;9.140;2022-09-02T05:49:03;11.60;99.90
10419;DHT22;5256;48.728;9.140;2022-09-02T05:51:50;11.80;99.90
10419;DHT22;5256;48.728;9.140;2022-09-02T05:54:29;12.10;99.90
10419;DHT22;5256;48.728;9.140;2022-09-02T05:56:58;12.20;99.90
10419;DHT22;5256;48.728;9.140;2022-09-02T05:59:25;12.40;99.90
10419;DHT22;5256;48.728;9.140;2022-09-02T06:01:51;12.60;99.90
10419;DHT22;5256;48.728;9.140;2022-09-02T06:04:18;12.80;99.90
10419;DHT22;5256;48.728;9.140;2022-09-02T06:06:44;13.00;99.90
10419;DHT22;5256;48.728;9.140;2022-09-02T06:09:12;13.10;99.90
10419;DHT22;5256;48.728;9.140;2022-09-02T06:11:41;13.20;99.90
10419;DHT22;5256;48.728;9.140;2022-09-02T06:14:09;13.30;99.90
10419;DHT22;5256;48.728;9.140;2022-09-02T06:16:37;13.60;99.90
10419;DHT22;5256;48.728;9.140;2022-09-02T06:19:03;13.80;99.90
10419;DHT22;5256;48.728;9.140;2022-09-02T06:21:29;14.00;99.90
10419;DHT22;5256;48.728;9.140;2022-09-02T06:23:55;14.10;99.90
10419;DHT22;5256;48.728;9.140;2022-09-02T06:26:21;14.20;99.90
10419;DHT22;5256;48.728;9.140;2022-09-02T06:28:47;14.40;99.90
10419;DHT22;5256;48.728;9.140;2022-09-02T06:31:22;14.60;99.90
10419;DHT22;5256;48.728;9.140;2022-09-02T06:33:51;14.70;99.90
10419;DHT22;5256;48.728;9.140;2022-09-02T06:36:18;14.90;99.90
10419;DHT22;5256;48.728;9.140;2022-09-02T06:38:47;15.10;99.90
10419;DHT22;5256;48.728;9.140;2022-09-02T06:41:20;15.30;99.90
10419;DHT22;5256;48.728;9.140;2022-09-02T06:43:51;15.50;99.90
10419;DHT22;5256;48.728;9.140;2022-09-02T06:46:22;15.70;99.90
10419;DHT22;5256;48.728;9.140;2022-09-02T06:48:48;15.90;99.90
10419;DHT22;5256;48.728;9.140;2022-09-02T06:51:19;16.10;99.90
10419;DHT22;5256;48.728;9.140;2022-09-02T06:53:45;16.20;99.90
10419;DHT22;5256;48.728;9.140;2022-09-02T06:56:11;16.10;99.90
10419;DHT22;5256;48.728;9.140;2022-09-02T06:58:37;16.30;99.90
10419;DHT22;5256;48.728;9.140;2022-09-02T07:01:03;16.80;99.90
10419;DHT22;5256;48.728;9.140;2022-09-02T07:03:28;17.50;99.90
10419;DHT22;5256;48.728;9.140;2022-09-02T07:06:13;18.20;99.90
10419;DHT22;5256;48.728;9.140;2022-09-02T07:08:41;18.90;99.90
10419;DHT22;5256;48.728;9.140;2022-09-02T07:11:15;19.20;99.90
10419;DHT22;5256;48.728;9.140;2022-09-02T07:13:41;19.10;99.90
10419;DHT22;5256;48.728;9.140;2022-09-02T07:16:07;19.40;99.90
10419;DHT22;5256;48.728;9.140;2022-09-02T07:18:33;19.50;99.90
10419;DHT22;5256;48.728;9.140;2022-09-02T07:20:59;19.70;99.90
10419;DHT22;5256;48.728;9.140;2022-09-02T07:23:25;19.90;99.90
10419;DHT22;5256;48.728;9.140;2022-09-02T07:25:51;19.90;99.90
10419;DHT22;5256;48.728;9.140;2022-09-02T07:28:17;20.10;99.90
10419;DHT22;5256;48.728;9.140;2022-09-02T07:30:43;20.40;99.90
10419;DHT22;5256;48.728;9.140;2022-09-02T07:33:10;20.60;99.90
10419;DHT22;5256;48.728;9.140;2022-09-02T07:35:40;21.00;99.90
10419;DHT22;5256;48.728;9.140;2022-09-02T07:38:06;20.80;99.90
10419;DHT22;5256;48.728;9.140;2022-09-02T07:40:33;20.70;99.90
10419;DHT22;5256;48.728;9.140;2022-09-02T07:43:01;20.70;99.90
10419;DHT22;5256;48.728;9.140;2022-09-02T07:45:28;20.70;99.90
10419;DHT22;5256;48.728;9.140;2022-09-02T07:47:54;20.60;99.90
10419;DHT22;5256;48.728;9.140;2022-09-02T07:50:19;20.60;99.90
10419;DHT22;5256;48.728;9.140;2022-09-02T07:52:45;20.60;99.90
10419;DHT22;5256;48.728;9.140;2022-09-02T07:55:11;20.80;99.90
10419;DHT22;5256;48.728;9.140;2022-09-02T07:57:37;21.50;99.90
10419;DHT22;5256;48.728;9.140;2022-09-02T08:00:05;21.80;99.90
10419;DHT22;5256;48.728;9.140;2022-09-02T08:02:31;21.90;99.90
10419;DHT22;5256;48.728;9.140;2022-09-02T08:04:57;21.20;99.90
10419;DHT22;5256;48.728;9.140;2022-09-02T08:07:23;21.20;99.90
10419;DHT22;5256;48.728;9.140;2022-09-02T08:09:50;21.20;99.90
10419;DHT22;5256;48.728;9.140;2022-09-02T08:12:16;21.10;99.90
10419;DHT22;5256;48.728;9.140;2022-09-02T08:14:42;21.30;99.90
10419;DHT22;5256;48.728;9.140;2022-09-02T08:17:08;21.00;99.90
10419;DHT22;5256;48.728;9.140;2022-09-02T08:19:33;21.10;99.90
10419;DHT22;5256;48.728;9.140;2022-09-02T08:22:05;21.20;99.90
10419;DHT22;5256;48.728;9.140;2022-09-02T08:24:31;21.60;99.90
10419;DHT22;5256;48.728;9.140;2022-09-02T08:26:57;21.80;99.90
10419;DHT22;5256;48.728;9.140;2022-09-02T08:29:24;22.30;99.90
10419;DHT22;5256;48.728;9.140;2022-09-02T08:31:50;22.50;99.90
10419;DHT22;5256;48.728;9.140;2022-09-02T08:34:15;22.60;99.50
10419;DHT22;5256;48.728;9.140;2022-09-02T08:36:41;22.50;99.90
10419;DHT22;5256;48.728;9.140;2022-09-02T08:39:08;22.60;99.90
10419;DHT22;5256;48.728;9.140;2022-09-02T08:41:57;22.20;99.90
10419;DHT22;5256;48.728;9.140;2022-09-02T08:48:22;22.70;99.40
10419;DHT22;5256;48.728;9.140;2022-09-02T08:50:52;21.90;99.40
10419;DHT22;5256;48.728;9.140;2022-09-02T08:53:39;22.20;99.80
10419;DHT22;5256;48.728;9.140;2022-09-02T08:56:11;22.20;99.80
10419;DHT22;5256;48.728;9.140;2022-09-02T08:58:43;22.10;99.80
10419;DHT22;5256;48.728;9.140;2022-09-02T09:17:53;22.50;98.80
10419;DHT22;5256;48.728;9.140;2022-09-02T09:20:33;22.60;98.20
10419;DHT22;5256;48.728;9.140;2022-09-02T09:23:01;22.60;98.30
10419;DHT22;5256;48.728;9.140;2022-09-02T09:25:28;23.00;98.20
10419;DHT22;5256;48.728;9.140;2022-09-02T09:27:57;23.40;97.20
10419;DHT22;5256;48.728;9.140;2022-09-02T09:30:23;23.80;97.10
10419;DHT22;5256;48.728;9.140;2022-09-02T09:32:57;23.80;96.60
10419;DHT22;5256;48.728;9.140;2022-09-02T09:35:25;23.50;97.30
10419;DHT22;5256;48.728;9.140;2022-09-02T09:37:53;23.00;97.70
10419;DHT22;5256;48.728;9.140;2022-09-02T09:45:39;23.60;95.90
10419;DHT22;5256;48.728;9.140;2022-09-02T09:48:24;23.90;95.70
10419;DHT22;5256;48.728;9.140;2022-09-02T09:55:55;23.90;95.60
10419;DHT22;5256;48.728;9.140;2022-09-02T09:58:44;23.50;95.20
10419;DHT22;5256;48.728;9.140;2022-09-02T10:03:47;22.20;95.20
10419;DHT22;5256;48.728;9.140;2022-09-02T10:09:04;21.60;96.90
10419;DHT22;5256;48.728;9.140;2022-09-02T10:11:35;21.90;96.60
10419;DHT22;5256;48.728;9.140;2022-09-02T10:14:07;21.70;96.30
10419;DHT22;5256;48.728;9.140;2022-09-02T10:16:51;21.80;96.00
10419;DHT22;5256;48.728;9.140;2022-09-02T10:40:46;21.20;95.70
10419;DHT22;5256;48.728;9.140;2022-09-02T10:43:40;21.20;95.40
10419;DHT22;5256;48.728;9.140;2022-09-02T10:46:08;21.10;95.30
10419;DHT22;5256;48.728;9.140;2022-09-02T10:48:43;21.20;95.70
10419;DHT22;5256;48.728;9.140;2022-09-02T10:51:46;21.40;95.00
10419;DHT22;5256;48.728;9.140;2022-09-02T10:54:33;21.50;94.70
10419;DHT22;5256;48.728;9.140;2022-09-02T10:57:05;21.40;94.80
10419;DHT22;5256;48.728;9.140;2022-09-02T10:59:53;21.50;94.80
10419;DHT22;5256;48.728;9.140;2022-09-02T11:02:29;21.60;95.50
10419;DHT22;5256;48.728;9.140;2022-09-02T11:05:02;21.70;94.70
10419;DHT22;5256;48.728;9.140;2022-09-02T11:13:23;21.60;93.80
10419;DHT22;5256;48.728;9.140;2022-09-02T11:15:55;21.60;94.40
10419;DHT22;5256;48.728;9.140;2022-09-02T11:18:34;21.50;94.20
10419;DHT22;5256;48.728;9.140;2022-09-02T11:30:05;21.20;94.10
10419;DHT22;5256;48.728;9.140;2022-09-02T11:33:21;21.30;93.90
10419;DHT22;5256;48.728;9.140;2022-09-02T11:35:47;21.10;94.80
10419;DHT22;5256;48.728;9.140;2022-09-02T11:43:47;21.30;94.90
10419;DHT22;5256;48.728;9.140;2022-09-02T11:54:44;21.20;94.20
10419;DHT22;5256;48.728;9.140;2022-09-02T11:57:19;21.40;95.10
10419;DHT22;5256;48.728;9.140;2022-09-02T12:07:54;21.10;94.30
10419;DHT22;5256;48.728;9.140;2022-09-02T12:13:38;21.30;94.30
10419;DHT22;5256;48.728;9.140;2022-09-02T12:21:21;21.50;94.30
10419;DHT22;5256;48.728;9.140;2022-09-02T12:26:14;21.60;94.10
10419;DHT22;5256;48.728;9.140;2022-09-02T12:28:41;21.60;94.70
10419;DHT22;5256;48.728;9.140;2022-09-02T12:31:14;21.60;94.80
10419;DHT22;5256;48.728;9.140;2022-09-02T12:33:46;21.60;94.50
10419;DHT22;5256;48.728;9.140;2022-09-02T12:47:37;21.90;93.80
10419;DHT22;5256;48.728;9.140;2022-09-02T12:50:15;21.80;93.30
10419;DHT22;5256;48.728;9.140;2022-09-02T12:52:45;21.70;93.70
10419;DHT22;5256;48.728;9.140;2022-09-02T12:55:24;21.80;93.60
10419;DHT22;5256;48.728;9.140;2022-09-02T12:57:54;21.80;93.40
10419;DHT22;5256;48.728;9.140;2022-09-02T13:06:19;22.10;94.20
10419;DHT22;5256;48.728;9.140;2022-09-02T13:09:14;21.90;93.90
10419;DHT22;5256;48.728;9.140;2022-09-02T13:24:04;22.30;94.90
10419;DHT22;5256;48.728;9.140;2022-09-02T13:32:00;22.10;94.20
10419;DHT22;5256;48.728;9.140;2022-09-02T13:34:30;22.10;94.80
10419;DHT22;5256;48.728;9.140;2022-09-02T13:36:56;22.20;95.10
10419;DHT22;5256;48.728;9.140;2022-09-02T13:39:26;22.30;95.00
10419;DHT22;5256;48.728;9.140;2022-09-02T13:41:52;22.30;94.80
10419;DHT22;5256;48.728;9.140;2022-09-02T13:44:25;22.30;94.60
10419;DHT22;5256;48.728;9.140;2022-09-02T13:47:03;22.40;94.20
10419;DHT22;5256;48.728;9.140;2022-09-02T13:49:35;22.30;94.60
10419;DHT22;5256;48.728;9.140;2022-09-02T13:52:05;22.30;95.30
10419;DHT22;5256;48.728;9.140;2022-09-02T13:54:35;22.50;95.20
10419;DHT22;5256;48.728;9.140;2022-09-02T13:57:04;22.80;95.10
10419;DHT22;5256;48.728;9.140;2022-09-02T13:59:39;22.90;95.00
10419;DHT22;5256;48.728;9.140;2022-09-02T14:02:38;22.80;94.90
10419;DHT22;5256;48.728;9.140;2022-09-02T14:05:10;22.90;94.60
10419;DHT22;5256;48.728;9.140;2022-09-02T14:07:43;22.80;94.00
10419;DHT22;5256;48.728;9.140;2022-09-02T14:10:14;22.80;94.50
10419;DHT22;5256;48.728;9.140;2022-09-02T14:12:41;22.80;94.40
10419;DHT22;5256;48.728;9.140;2022-09-02T14:15:11;23.00;94.70
10419;DHT22;5256;48.728;9.140;2022-09-02T14:17:37;22.90;94.30
10419;DHT22;5256;48.728;9.140;2022-09-02T14:22:54;23.30;93.90
10419;DHT22;5256;48.728;9.140;2022-09-02T14:25:21;23.30;93.80
10419;DHT22;5256;48.728;9.140;2022-09-02T14:27:48;23.20;94.20
10419;DHT22;5256;48.728;9.140;2022-09-02T14:30:32;23.20;93.90
10419;DHT22;5256;48.728;9.140;2022-09-02T14:36:03;23.70;94.10
10419;DHT22;5256;48.728;9.140;2022-09-02T14:43:48;24.60;92.80
10419;DHT22;5256;48.728;9.140;2022-09-02T14:49:30;25.00;91.80
10419;DHT22;5256;48.728;9.140;2022-09-02T14:51:58;25.60;91.30
10419;DHT22;5256;48.728;9.140;2022-09-02T14:54:44;26.00;91.00
10419;DHT22;5256;48.728;9.140;2022-09-02T14:59:49;25.80;90.30
10419;DHT22;5256;48.728;9.140;2022-09-02T15:02:23;25.60;90.80
10419;DHT22;5256;48.728;9.140;2022-09-02T15:04:53;25.60;90.60
10419;DHT22;5256;48.728;9.140;2022-09-02T15:07:19;25.70;90.40
10419;DHT22;5256;48.728;9.140;2022-09-02T15:09:45;25.80;91.10
10419;DHT22;5256;48.728;9.140;2022-09-02T15:12:13;26.40;90.20
10419;DHT22;5256;48.728;9.140;2022-09-02T15:14:39;27.10;90.20
10419;DHT22;5256;48.728;9.140;2022-09-02T15:17:10;27.50;87.40
10419;DHT22;5256;48.728;9.140;2022-09-02T15:19:36;27.20;87.80
10419;DHT22;5256;48.728;9.140;2022-09-02T15:22:02;27.40;88.10
10419;DHT22;5256;48.728;9.140;2022-09-02T15:24:27;27.20;86.60
10419;DHT22;5256;48.728;9.140;2022-09-02T15:26:53;27.00;85.50
10419;DHT22;5256;48.728;9.140;2022-09-02T15:29:18;26.20;87.80
10419;DHT22;5256;48.728;9.140;2022-09-02T15:31:44;26.20;88.00
10419;DHT22;5256;48.728;9.140;2022-09-02T15:34:10;26.40;87.50
10419;DHT22;5256;48.728;9.140;2022-09-02T15:36:36;26.80;87.20
10419;DHT22;5256;48.728;9.140;2022-09-02T15:39:02;27.20;86.50
10419;DHT22;5256;48.728;9.140;2022-09-02T15:41:28;27.40;86.30
10419;DHT22;5256;48.728;9.140;2022-09-02T15:43:56;27.50;86.00
10419;DHT22;5256;48.728;9.140;2022-09-02T15:46:32;27.70;86.00
10419;DHT22;5256;48.728;9.140;2022-09-02T15:49:07;27.10;84.70
10419;DHT22;5256;48.728;9.140;2022-09-02T15:51:34;26.60;85.50
10419;DHT22;5256;48.728;9.140;2022-09-02T15:54:02;26.00;87.40
10419;DHT22;5256;48.728;9.140;2022-09-02T15:56:30;25.60;87.00
10419;DHT22;5256;48.728;9.140;2022-09-02T15:59:01;25.30;86.50
10419;DHT22;5256;48.728;9.140;2022-09-02T16:01:39;24.40;87.90
10419;DHT22;5256;48.728;9.140;2022-09-02T16:04:06;23.50;89.50
10419;DHT22;5256;48.728;9.140;2022-09-02T16:06:34;23.30;90.10
10419;DHT22;5256;48.728;9.140;2022-09-02T16:09:04;23.10;90.60
10419;DHT22;5256;48.728;9.140;2022-09-02T16:11:30;22.70;90.80
10419;DHT22;5256;48.728;9.140;2022-09-02T16:13:56;22.50;90.80
10419;DHT22;5256;48.728;9.140;2022-09-02T16:16:21;22.30;91.40
10419;DHT22;5256;48.728;9.140;2022-09-02T16:18:52;22.30;91.20
10419;DHT22;5256;48.728;9.140;2022-09-02T16:21:19;22.20;91.10
10419;DHT22;5256;48.728;9.140;2022-09-02T16:23:46;22.20;91.50
10419;DHT22;5256;48.728;9.140;2022-09-02T16:26:12;22.20;91.50
10419;DHT22;5256;48.728;9.140;2022-09-02T16:28:43;22.00;91.80
10419;DHT22;5256;48.728;9.140;2022-09-02T16:31:11;21.90;91.80
10419;DHT22;5256;48.728;9.140;2022-09-02T16:33:38;21.90;92.10
10419;DHT22;5256;48.728;9.140;2022-09-02T16:36:04;21.90;92.20
10419;DHT22;5256;48.728;9.140;2022-09-02T16:38:30;21.80;92.30
10419;DHT22;5256;48.728;9.140;2022-09-02T16:41:05;21.70;92.50
10419;DHT22;5256;48.728;9.140;2022-09-02T16:43:31;21.70;92.40
10419;DHT22;5256;48.728;9.140;2022-09-02T16:45:58;21.60;92.60
10419;DHT22;5256;48.728;9.140;2022-09-02T16:48:29;21.50;92.50
10419;DHT22;5256;48.728;9.140;2022-09-02T16:51:01;21.60;92.40
10419;DHT22;5256;48.728;9.140;2022-09-02T16:53:27;21.50;92.30
10419;DHT22;5256;48.728;9.140;2022-09-02T16:55:53;21.40;92.40
10419;DHT22;5256;48.728;9.140;2022-09-02T16:58:18;21.40;92.30
10419;DHT22;5256;48.728;9.140;2022-09-02T17:00:44;21.40;92.30
10419;DHT22;5256;48.728;9.140;2022-09-02T17:03:10;21.40;92.30
10419;DHT22;5256;48.728;9.140;2022-09-02T17:05:37;21.40;92.60
10419;DHT22;5256;48.728;9.140;2022-09-02T17:08:03;21.40;92.50
10419;DHT22;5256;48.728;9.140;2022-09-02T17:10:30;21.40;92.50
10419;DHT22;5256;48.728;9.140;2022-09-02T17:12:56;21.30;92.50
10419;DHT22;5256;48.728;9.140;2022-09-02T17:15:22;21.20;93.10
10419;DHT22;5256;48.728;9.140;2022-09-02T17:17:48;21.10;93.00
10419;DHT22;5256;48.728;9.140;2022-09-02T17:20:14;21.00;93.10
10419;DHT22;5256;48.728;9.140;2022-09-02T17:22:40;20.90;93.00
10419;DHT22;5256;48.728;9.140;2022-09-02T17:25:06;20.90;93.10
10419;DHT22;5256;48.728;9.140;2022-09-02T17:27:32;20.80;93.30
10419;DHT22;5256;48.728;9.140;2022-09-02T17:30:08;20.70;93.70
10419;DHT22;5256;48.728;9.140;2022-09-02T17:32:38;20.60;93.50
10419;DHT22;5256;48.728;9.140;2022-09-02T17:35:06;20.60;93.60
10419;DHT22;5256;48.728;9.140;2022-09-02T17:37:32;20.50;93.80
10419;DHT22;5256;48.728;9.140;2022-09-02T17:40:05;20.40;93.80
10419;DHT22;5256;48.728;9.140;2022-09-02T17:43:02;20.30;94.20
10419;DHT22;5256;48.728;9.140;2022-09-02T17:46:06;20.20;94.50
10419;DHT22;5256;48.728;9.140;2022-09-02T17:48:33;20.00;94.50
10419;DHT22;5256;48.728;9.140;2022-09-02T17:50:59;19.90;94.80
10419;DHT22;5256;48.728;9.140;2022-09-02T17:53:25;19.80;94.90
10419;DHT22;5256;48.728;9.140;2022-09-02T17:58:48;19.80;95.10
10419;DHT22;5256;48.728;9.140;2022-09-02T18:01:17;19.70;95.20
10419;DHT22;5256;48.728;9.140;2022-09-02T18:04:05;19.70;95.20
10419;DHT22;5256;48.728;9.140;2022-09-02T18:06:36;19.60;95.20
10419;DHT22;5256;48.728;9.140;2022-09-02T18:09:03;19.50;95.30
10419;DHT22;5256;48.728;9.140;2022-09-02T18:11:30;19.50;95.60
10419;DHT22;5256;48.728;9.140;2022-09-02T18:25:26;19.20;96.20
10419;DHT22;5256;48.728;9.140;2022-09-02T18:30:57;19.00;96.70
10419;DHT22;5256;48.728;9.140;2022-09-02T18:44:28;18.80;97.60
10419;DHT22;5256;48.728;9.140;2022-09-02T18:47:12;18.70;97.70
10419;DHT22;5256;48.728;9.140;2022-09-02T18:49:40;18.70;98.00
10419;DHT22;5256;48.728;9.140;2022-09-02T18:52:08;18.70;98.00
10419;DHT22;5256;48.728;9.140;2022-09-02T18:54:49;18.70;98.00
10419;DHT22;5256;48.728;9.140;2022-09-02T18:57:19;18.60;98.50
10419;DHT22;5256;48.728;9.140;2022-09-02T19:00:04;18.50;98.70
10419;DHT22;5256;48.728;9.140;2022-09-02T19:03:06;18.40;99.30
10419;DHT22;5256;48.728;9.140;2022-09-02T19:05:33;18.30;99.90
10419;DHT22;5256;48.728;9.140;2022-09-02T19:08:08;18.20;99.90
10419;DHT22;5256;48.728;9.140;2022-09-02T19:11:05;18.20;99.90
10419;DHT22;5256;48.728;9.140;2022-09-02T19:13:55;18.10;99.90